createdAt,value
2023-04-18T00:00:45.716Z,4.37
2023-04-18T00:03:18.469Z,2.80
2023-04-18T00:05:51.403Z,3.13
2023-04-18T00:08:21.739Z,3.10
2023-04-18T00:11:02.030Z,4.00
2023-04-18T00:13:39.526Z,4.47
2023-04-18T00:16:14.241Z,4.07
2023-04-18T00:18:51.285Z,3.77
2023-04-18T00:21:36.120Z,4.23
2023-04-18T00:24:06.210Z,2.77
2023-04-18T00:29:42.126Z,2.67
2023-04-18T00:32:15.197Z,3.70
2023-04-18T00:34:54.328Z,3.00
2023-04-18T00:40:26.571Z,4.23
2023-04-18T00:43:03.824Z,2.70
2023-04-18T00:45:35.110Z,4.40
2023-04-18T00:48:07.631Z,4.53
2023-04-18T00:50:40.087Z,3.10
2023-04-18T00:53:19.247Z,3.30
2023-04-18T00:55:53.752Z,3.97
2023-04-18T00:58:30.300Z,3.30
2023-04-18T01:01:02.908Z,4.63
2023-04-18T01:03:39.273Z,4.57
2023-04-18T01:06:09.318Z,4.17
2023-04-18T01:08:40.744Z,3.07
2023-04-18T01:11:20.155Z,3.13
2023-04-18T01:14:13.126Z,2.87
2023-04-18T01:16:44.677Z,3.47
2023-04-18T01:19:16.406Z,3.93
2023-04-18T01:21:48.229Z,3.57
2023-04-18T01:24:28.317Z,2.63
2023-04-18T01:27:02.046Z,2.00
2023-04-18T01:29:34.024Z,3.50
2023-04-18T01:32:08.536Z,2.53
2023-04-18T01:34:38.657Z,3.37
2023-04-18T01:37:10.730Z,2.63
2023-04-18T01:39:57.688Z,3.40
2023-04-18T01:42:28.178Z,2.77
2023-04-18T01:48:09.368Z,3.27
2023-04-18T01:50:54.189Z,1.83
2023-04-18T01:53:26.777Z,2.20
2023-04-18T01:56:09.098Z,3.00
2023-04-18T01:58:48.670Z,1.90
2023-04-18T02:01:26.114Z,2.93
2023-04-18T02:04:10.421Z,1.87
2023-04-18T02:06:42.243Z,2.50
2023-04-18T02:09:14.073Z,2.70
2023-04-18T02:11:45.955Z,3.30
2023-04-18T02:14:16.172Z,2.23
2023-04-18T02:16:45.363Z,1.40
2023-04-18T02:19:20.694Z,3.97
2023-04-18T02:21:50.479Z,2.43
2023-04-18T02:24:20.478Z,3.60
2023-04-18T02:26:51.561Z,1.77
2023-04-18T02:29:20.661Z,2.50
2023-04-18T02:31:54.000Z,3.30
2023-04-18T02:34:24.209Z,2.63
2023-04-18T02:36:53.265Z,3.03
2023-04-18T02:39:28.795Z,2.83
2023-04-18T02:41:59.852Z,2.93
2023-04-18T02:44:29.202Z,4.43
2023-04-18T02:46:58.469Z,1.07
2023-04-18T02:49:29.561Z,5.10
2023-04-18T02:52:04.350Z,3.30
2023-04-18T02:57:48.666Z,2.87
2023-04-18T03:00:21.682Z,2.27
2023-04-18T03:02:51.189Z,3.17
2023-04-18T03:05:20.815Z,3.73
2023-04-18T03:07:51.480Z,3.00
2023-04-18T03:10:20.463Z,3.47
2023-04-18T03:12:52.632Z,2.50
2023-04-18T03:15:25.355Z,2.73
2023-04-18T03:17:54.428Z,3.00
2023-04-18T03:20:26.829Z,2.53
2023-04-18T03:22:57.160Z,2.50
2023-04-18T03:25:28.803Z,2.23
2023-04-18T03:28:00.961Z,2.60
2023-04-18T03:30:32.195Z,2.67
2023-04-18T03:33:03.244Z,2.53
2023-04-18T03:35:34.505Z,2.67
2023-04-18T03:38:05.109Z,3.53
2023-04-18T03:40:34.176Z,2.43
2023-04-18T03:43:03.787Z,3.17
2023-04-18T03:45:34.851Z,2.53
2023-04-18T03:48:05.932Z,1.80
2023-04-18T03:50:34.988Z,2.77
2023-04-18T03:53:03.996Z,1.87
2023-04-18T03:55:33.664Z,2.40
2023-04-18T03:58:05.000Z,2.50
2023-04-18T04:00:35.740Z,2.20
2023-04-18T04:03:07.609Z,3.07
2023-04-18T04:05:37.198Z,3.73
2023-04-18T04:08:06.009Z,3.13
2023-04-18T04:10:34.942Z,3.20
2023-04-18T04:13:03.765Z,2.67
2023-04-18T04:15:33.105Z,1.80
2023-04-18T04:18:04.285Z,2.27
2023-04-18T04:20:34.549Z,2.00
2023-04-18T04:23:03.683Z,2.73
2023-04-18T04:25:33.478Z,2.80
2023-04-18T04:28:03.421Z,2.27
2023-04-18T04:30:36.556Z,3.63
2023-04-18T04:33:08.107Z,2.90
2023-04-18T04:35:37.817Z,2.47
2023-04-18T04:38:07.835Z,2.70
2023-04-18T04:40:38.471Z,3.00
2023-04-18T04:43:07.480Z,3.57
2023-04-18T04:45:39.253Z,3.73
2023-04-18T04:48:10.915Z,2.27
2023-04-18T04:50:43.114Z,2.33
2023-04-18T04:53:13.276Z,2.10
2023-04-18T04:55:42.843Z,4.77
2023-04-18T04:58:16.715Z,3.70
2023-04-18T05:00:59.493Z,4.40
2023-04-18T05:03:53.573Z,5.60
2023-04-18T05:06:31.858Z,2.00
2023-04-18T05:09:02.245Z,4.13
2023-04-18T05:11:32.169Z,3.50
2023-04-18T05:14:01.166Z,4.57
2023-04-18T05:16:30.720Z,4.73
2023-04-18T05:19:00.630Z,2.97
2023-04-18T05:21:33.133Z,3.00
2023-04-18T05:24:05.497Z,2.97
2023-04-18T05:26:34.907Z,3.90
2023-04-18T05:29:05.017Z,3.80
2023-04-18T05:31:34.472Z,2.97
2023-04-18T05:34:04.095Z,2.10
2023-04-18T05:36:35.021Z,4.60
2023-04-18T05:39:04.949Z,3.90
2023-04-18T05:41:34.014Z,4.33
2023-04-18T05:44:05.889Z,2.77
2023-04-18T05:46:35.289Z,4.03
2023-04-18T05:49:04.328Z,3.17
2023-04-18T05:51:39.363Z,3.17
2023-04-18T05:54:08.562Z,2.53
2023-04-18T05:56:37.951Z,3.80
2023-04-18T05:59:07.389Z,4.27
2023-04-18T06:01:39.035Z,3.83
2023-04-18T06:04:09.874Z,3.40
2023-04-18T06:06:42.997Z,4.17
2023-04-18T06:09:12.653Z,3.60
2023-04-18T06:11:44.092Z,4.97
2023-04-18T06:14:13.619Z,3.80
2023-04-18T06:16:44.388Z,2.90
2023-04-18T06:19:15.419Z,3.00
2023-04-18T06:21:49.625Z,3.80
2023-04-18T06:24:37.453Z,4.13
2023-04-18T06:27:14.935Z,4.63
2023-04-18T06:29:51.607Z,3.97
2023-04-18T06:32:26.765Z,3.33
2023-04-18T06:35:07.185Z,3.80
2023-04-18T06:37:39.240Z,3.77
2023-04-18T06:40:13.267Z,3.47
2023-04-18T06:42:45.281Z,4.50
2023-04-18T06:48:11.529Z,3.60
2023-04-18T06:50:40.816Z,4.03
2023-04-18T06:53:31.406Z,3.07
2023-04-18T06:56:04.403Z,4.23
2023-04-18T06:58:36.484Z,3.70
2023-04-18T07:01:33.199Z,4.40
2023-04-18T07:04:04.188Z,3.37
2023-04-18T07:06:51.715Z,3.80
2023-04-18T07:09:20.913Z,3.73
2023-04-18T07:11:52.947Z,4.73
2023-04-18T07:14:23.696Z,4.73
2023-04-18T07:16:53.043Z,5.07
2023-04-18T07:19:22.054Z,4.40
2023-04-18T07:21:51.280Z,4.53
2023-04-18T07:24:20.315Z,4.30
2023-04-18T07:26:49.160Z,4.93
2023-04-18T07:29:20.426Z,4.50
2023-04-18T07:31:49.606Z,6.03
2023-04-18T07:34:18.579Z,4.20
2023-04-18T07:36:48.063Z,6.43
2023-04-18T07:39:19.389Z,5.53
2023-04-18T07:41:48.583Z,3.30
2023-04-18T07:44:18.421Z,5.57
2023-04-18T07:46:49.528Z,5.00
2023-04-18T07:49:18.798Z,3.87
2023-04-18T07:51:48.108Z,3.87
2023-04-18T07:54:17.300Z,4.67
2023-04-18T07:56:48.636Z,3.97
2023-04-18T07:59:19.543Z,6.33
2023-04-18T08:01:50.576Z,4.40
2023-04-18T08:04:19.727Z,4.30
2023-04-18T08:06:49.462Z,4.80
2023-04-18T08:09:20.686Z,4.87
2023-04-18T08:11:52.216Z,5.30
2023-04-18T08:14:21.202Z,4.80
2023-04-18T08:16:52.442Z,5.03
2023-04-18T08:19:21.932Z,5.47
2023-04-18T08:21:52.724Z,4.77
2023-04-18T08:24:24.064Z,4.60
2023-04-18T08:26:54.166Z,5.10
2023-04-18T08:29:23.564Z,4.77
2023-04-18T08:31:55.213Z,4.83
2023-04-18T08:34:24.936Z,5.43
2023-04-18T08:36:54.416Z,3.97
2023-04-18T08:39:25.402Z,4.23
2023-04-18T08:42:00.427Z,4.60
2023-04-18T08:44:34.232Z,5.47
2023-04-18T08:47:05.015Z,4.30
2023-04-18T08:49:36.359Z,5.93
2023-04-18T08:52:08.703Z,4.37
2023-04-18T08:54:39.363Z,5.20
2023-04-18T08:57:09.350Z,4.97
2023-04-18T08:59:40.703Z,3.50
2023-04-18T09:02:14.555Z,5.00
2023-04-18T09:04:46.395Z,5.27
2023-04-18T09:07:16.559Z,4.60
2023-04-18T09:09:46.528Z,3.50
2023-04-18T09:12:16.129Z,4.67
2023-04-18T09:14:46.134Z,3.87
2023-04-18T09:17:18.553Z,3.73
2023-04-18T09:19:50.552Z,4.50
2023-04-18T09:22:19.698Z,2.67
2023-04-18T09:24:56.046Z,3.10
2023-04-18T09:27:25.488Z,4.60
2023-04-18T09:29:57.895Z,5.20
2023-04-18T09:32:29.748Z,4.70
2023-04-18T09:35:04.099Z,4.57
2023-04-18T09:37:33.725Z,3.57
2023-04-18T09:40:08.311Z,3.63
2023-04-18T09:42:39.337Z,4.60
2023-04-18T09:45:13.425Z,4.60
2023-04-18T09:47:45.668Z,5.40
2023-04-18T09:50:17.112Z,5.43
2023-04-18T09:52:46.996Z,4.77
2023-04-18T09:55:17.972Z,5.80
2023-04-18T09:57:48.567Z,5.40
2023-04-18T10:00:20.745Z,5.00
2023-04-18T10:02:52.450Z,3.87
2023-04-18T10:05:23.785Z,6.37
2023-04-18T10:07:52.808Z,5.10
2023-04-18T10:10:22.095Z,5.97
2023-04-18T10:12:52.391Z,6.73
2023-04-18T10:15:22.796Z,5.53
2023-04-18T10:20:29.335Z,5.27
2023-04-18T10:22:59.096Z,5.17
2023-04-18T10:25:46.098Z,5.27
2023-04-18T10:28:15.932Z,4.43
2023-04-18T10:30:55.039Z,5.20
2023-04-18T10:33:31.796Z,4.40
2023-04-18T10:36:20.314Z,6.03
2023-04-18T10:38:51.421Z,6.17
2023-04-18T10:41:22.503Z,5.40
2023-04-18T10:44:10.400Z,4.97
2023-04-18T10:46:40.667Z,5.50
2023-04-18T10:49:18.951Z,5.60
2023-04-18T10:51:48.910Z,5.00
2023-04-18T10:54:21.087Z,5.73
2023-04-18T10:56:59.081Z,5.33
2023-04-18T10:59:37.945Z,5.90
2023-04-18T11:02:07.881Z,4.77
2023-04-18T11:04:38.817Z,5.57
2023-04-18T11:07:08.075Z,6.47
2023-04-18T11:09:38.768Z,6.90
2023-04-18T11:12:08.724Z,4.27
2023-04-18T11:14:43.897Z,5.20
2023-04-18T11:17:19.915Z,5.33
2023-04-18T11:19:51.520Z,7.37
2023-04-18T11:22:20.712Z,8.00
2023-04-18T11:24:50.190Z,6.40
2023-04-18T11:27:20.013Z,5.93
2023-04-18T11:29:54.744Z,5.07
2023-04-18T11:32:25.540Z,6.50
2023-04-18T11:34:57.189Z,4.10
2023-04-18T11:37:26.940Z,6.07
2023-04-18T11:39:56.010Z,5.93
2023-04-18T11:42:31.654Z,5.80
2023-04-18T11:45:00.761Z,5.07
2023-04-18T11:47:30.899Z,7.20
2023-04-18T11:50:03.477Z,5.63
2023-04-18T11:52:37.165Z,6.57
2023-04-18T11:58:43.378Z,5.70
2023-04-18T12:01:19.435Z,5.90
2023-04-18T12:04:06.977Z,5.67
2023-04-18T12:06:54.272Z,6.37
2023-04-18T12:09:24.845Z,6.17
2023-04-18T12:12:03.341Z,4.93
2023-04-18T12:14:32.919Z,6.17
2023-04-18T12:17:05.395Z,5.47
2023-04-18T12:19:35.047Z,6.07
2023-04-18T12:22:22.957Z,7.47
2023-04-18T12:25:09.550Z,6.37
2023-04-18T12:30:43.494Z,5.50
2023-04-18T12:33:13.019Z,5.63
2023-04-18T12:35:49.711Z,4.83
2023-04-18T12:38:25.081Z,5.77
2023-04-18T12:40:55.131Z,5.70
2023-04-18T12:43:24.585Z,5.43
2023-04-18T12:45:54.619Z,6.40
2023-04-18T12:48:24.285Z,7.07
2023-04-18T12:50:55.849Z,7.10
2023-04-18T12:53:29.527Z,5.27
2023-04-18T12:55:59.152Z,7.57
2023-04-18T12:58:30.775Z,5.57
2023-04-18T13:01:02.687Z,6.00
2023-04-18T13:03:34.206Z,6.10
2023-04-18T13:06:04.544Z,6.90
2023-04-18T13:08:53.809Z,8.53
2023-04-18T13:11:29.157Z,8.40
2023-04-18T13:13:59.704Z,7.10
2023-04-18T13:16:30.437Z,9.30
2023-04-18T13:19:00.651Z,6.80
2023-04-18T13:21:32.906Z,7.13
2023-04-18T13:24:05.088Z,6.40
2023-04-18T13:26:43.168Z,7.80
2023-04-18T13:29:31.274Z,6.90
2023-04-18T13:32:01.353Z,6.30
2023-04-18T13:34:31.388Z,9.20
2023-04-18T13:37:06.323Z,6.20
2023-04-18T13:39:41.339Z,7.90
2023-04-18T13:42:10.473Z,6.47
2023-04-18T13:44:47.072Z,7.70
2023-04-18T13:47:18.890Z,7.20
2023-04-18T13:49:51.450Z,6.80
2023-04-18T13:52:30.815Z,5.97
2023-04-18T13:55:04.088Z,7.80
2023-04-18T13:57:42.080Z,8.70
2023-04-18T14:00:16.542Z,9.53
2023-04-18T14:02:46.350Z,5.70
2023-04-18T14:05:18.528Z,8.40
2023-04-18T14:07:49.048Z,7.17
2023-04-18T14:10:22.626Z,6.83
2023-04-18T14:12:59.177Z,6.93
2023-04-18T14:15:30.797Z,5.97
2023-04-18T14:18:01.604Z,7.83
2023-04-18T14:20:35.282Z,6.63
2023-04-18T14:23:09.596Z,8.23
2023-04-18T14:31:59.306Z,6.90
2023-04-18T14:35:10.449Z,5.37
2023-04-18T14:38:38.319Z,7.73
2023-04-18T14:41:23.413Z,6.70
2023-04-18T14:44:05.062Z,6.27
2023-04-18T14:46:41.314Z,7.60
2023-04-18T14:49:13.619Z,6.70
2023-04-18T14:51:44.060Z,5.87
2023-04-18T14:54:13.981Z,5.97
2023-04-18T14:56:56.258Z,6.77
2023-04-18T14:59:28.102Z,5.57
2023-04-18T15:02:09.894Z,6.57
2023-04-18T15:04:40.264Z,7.10
2023-04-18T15:07:13.056Z,6.90
2023-04-18T15:09:46.233Z,6.70
2023-04-18T15:12:21.710Z,6.00
2023-04-18T15:14:58.109Z,6.83
2023-04-18T15:17:43.407Z,6.93
2023-04-18T15:20:15.214Z,6.40
2023-04-18T15:23:00.568Z,6.20
2023-04-18T15:25:31.118Z,4.40
2023-04-18T15:28:01.072Z,5.83
2023-04-18T15:30:35.400Z,4.87
2023-04-18T15:33:21.889Z,4.47
2023-04-18T15:36:16.826Z,5.00
2023-04-18T15:38:47.105Z,5.77
2023-04-18T15:41:19.037Z,4.30
2023-04-18T15:43:49.590Z,5.80
2023-04-18T15:46:32.587Z,5.60
2023-04-18T15:49:11.835Z,6.40
2023-04-18T15:51:42.149Z,4.70
2023-04-18T15:54:11.685Z,5.10
2023-04-18T15:56:45.734Z,6.00
2023-04-18T15:59:15.852Z,5.20
2023-04-18T16:01:47.064Z,7.37
2023-04-18T16:04:18.741Z,5.37
2023-04-18T16:06:50.678Z,5.63
2023-04-18T16:09:20.810Z,7.87
2023-04-18T16:11:50.809Z,6.93
2023-04-18T16:14:20.664Z,7.40
2023-04-18T16:16:53.409Z,7.93
2023-04-18T16:19:33.327Z,8.00
2023-04-18T16:22:17.521Z,9.07
2023-04-18T16:24:52.766Z,6.90
2023-04-18T16:27:30.541Z,8.00
2023-04-18T16:30:04.630Z,6.67
2023-04-18T16:32:53.709Z,8.23
2023-04-18T16:35:37.939Z,5.93
2023-04-18T16:38:13.050Z,6.50
2023-04-18T16:40:44.789Z,6.10
2023-04-18T16:43:14.686Z,4.47
2023-04-18T16:45:44.875Z,5.77
2023-04-18T16:48:14.985Z,5.83
2023-04-18T16:50:52.785Z,5.73
2023-04-18T16:53:25.295Z,5.50
2023-04-18T16:55:57.217Z,6.03
2023-04-18T16:58:29.408Z,4.70
2023-04-18T17:01:08.303Z,4.70
2023-04-18T17:03:38.251Z,5.67
2023-04-18T17:06:12.924Z,5.90
2023-04-18T17:08:43.451Z,5.70
2023-04-18T17:11:29.803Z,6.07
2023-04-18T17:17:09.556Z,4.40
2023-04-18T17:19:42.192Z,6.33
2023-04-18T17:22:12.547Z,5.07
2023-04-18T17:24:42.826Z,5.90
2023-04-18T17:27:14.454Z,5.67
2023-04-18T17:29:46.536Z,7.27
2023-04-18T17:32:19.377Z,5.10
2023-04-18T17:35:12.820Z,4.50
2023-04-18T17:37:43.741Z,5.00
2023-04-18T17:40:17.744Z,5.67
2023-04-18T17:42:50.851Z,4.40
2023-04-18T17:45:23.273Z,8.00
2023-04-18T17:47:55.178Z,5.33
2023-04-18T17:50:28.402Z,5.90
2023-04-18T17:52:58.137Z,5.13
2023-04-18T17:55:28.003Z,5.60
2023-04-18T17:58:00.184Z,5.50
2023-04-18T18:00:30.139Z,5.43
2023-04-18T18:03:02.472Z,5.37
2023-04-18T18:05:37.333Z,4.53
2023-04-18T18:08:07.206Z,4.93
2023-04-18T18:10:36.520Z,5.93
2023-04-18T18:13:14.272Z,7.40
2023-04-18T18:15:49.653Z,5.47
2023-04-18T18:18:21.361Z,5.53
2023-04-18T18:20:51.759Z,5.30
2023-04-18T18:23:25.087Z,5.57
2023-04-18T18:25:56.283Z,6.33
2023-04-18T18:28:32.509Z,7.37
2023-04-18T18:31:06.810Z,5.63
2023-04-18T18:33:48.413Z,6.20
2023-04-18T18:36:18.173Z,5.27
2023-04-18T18:38:48.725Z,4.90
2023-04-18T18:41:18.296Z,6.30
2023-04-18T18:43:48.132Z,4.50
2023-04-18T18:46:35.071Z,5.40
2023-04-18T18:49:11.849Z,6.47
2023-04-18T18:51:42.405Z,5.30
2023-04-18T18:54:20.761Z,6.23
2023-04-18T18:56:53.588Z,5.10
2023-04-18T18:59:23.863Z,5.03
2023-04-18T19:01:53.462Z,4.77
2023-04-18T19:04:30.467Z,5.47
2023-04-18T19:07:02.800Z,5.77
2023-04-18T19:09:33.162Z,4.80
2023-04-18T19:12:04.526Z,6.53
2023-04-18T19:14:35.692Z,6.17
2023-04-18T19:17:08.340Z,4.80
2023-04-18T19:19:44.620Z,5.07
2023-04-18T19:22:24.382Z,5.47
2023-04-18T19:24:54.915Z,6.20
2023-04-18T19:27:24.469Z,5.57
2023-04-18T19:29:54.857Z,7.80
2023-04-18T19:32:26.574Z,5.23
2023-04-18T19:34:58.056Z,6.37
2023-04-18T19:37:30.444Z,6.00
2023-04-18T19:40:01.154Z,5.10
2023-04-18T19:42:31.123Z,6.10
2023-04-18T19:45:01.297Z,4.87
2023-04-18T19:47:40.010Z,4.60
2023-04-18T19:50:16.431Z,4.47
2023-04-18T19:52:53.589Z,3.83
2023-04-18T19:55:23.042Z,4.90
2023-04-18T19:57:56.751Z,3.40
2023-04-18T20:00:35.958Z,5.37
2023-04-18T20:03:08.249Z,4.47
2023-04-18T20:05:39.645Z,5.13
2023-04-18T20:08:10.850Z,5.10
2023-04-18T20:10:40.424Z,3.40
2023-04-18T20:13:12.531Z,4.80
2023-04-18T20:15:42.758Z,5.93
2023-04-18T20:18:12.333Z,4.90
2023-04-18T20:20:44.229Z,6.20
2023-04-18T20:23:14.918Z,3.10
2023-04-18T20:25:45.166Z,4.90
2023-04-18T20:28:14.972Z,5.40
2023-04-18T20:30:46.058Z,4.33
2023-04-18T20:33:15.533Z,4.50
2023-04-18T20:35:46.975Z,6.63
2023-04-18T20:38:17.718Z,5.27
2023-04-18T20:40:47.623Z,5.47
2023-04-18T20:43:17.835Z,4.30
2023-04-18T20:45:51.604Z,4.30
2023-04-18T20:48:21.983Z,4.73
2023-04-18T20:50:53.117Z,5.30
2023-04-18T20:53:25.336Z,3.80
2023-04-18T20:55:55.753Z,5.30
2023-04-18T20:58:25.075Z,4.70
2023-04-18T21:00:56.396Z,7.57
2023-04-18T21:03:27.620Z,4.80
2023-04-18T21:05:58.893Z,4.87
2023-04-18T21:08:32.397Z,4.07
2023-04-18T21:11:07.640Z,5.30
2023-04-18T21:13:37.619Z,4.60
2023-04-18T21:16:10.402Z,5.27
2023-04-18T21:18:41.000Z,4.93
2023-04-18T21:21:12.531Z,4.13
2023-04-18T21:23:46.267Z,5.83
2023-04-18T21:26:15.486Z,4.77
2023-04-18T21:28:57.886Z,4.03
2023-04-18T21:31:29.056Z,4.80
2023-04-18T21:33:58.785Z,5.43
2023-04-18T21:36:29.792Z,6.90
2023-04-18T21:38:59.385Z,4.77
2023-04-18T21:41:28.925Z,5.23
2023-04-18T21:43:58.373Z,5.93
2023-04-18T21:46:52.900Z,3.90
2023-04-18T21:49:24.405Z,5.20
2023-04-18T21:51:58.187Z,4.60
2023-04-18T21:54:31.081Z,6.17
2023-04-18T21:57:03.326Z,4.80
2023-04-18T21:59:32.744Z,5.13
2023-04-18T22:02:01.862Z,6.13
2023-04-18T22:04:31.192Z,4.70
2023-04-18T22:07:03.597Z,4.57
2023-04-18T22:09:34.170Z,4.57
2023-04-18T22:12:04.813Z,5.40
2023-04-18T22:14:34.695Z,5.23
2023-04-18T22:17:05.198Z,5.47
2023-04-18T22:19:44.946Z,4.63
2023-04-18T22:22:16.213Z,7.10
2023-04-18T22:24:47.575Z,4.67
2023-04-18T22:27:20.100Z,4.07
2023-04-18T22:29:50.738Z,5.23
2023-04-18T22:32:20.742Z,4.13
2023-04-18T22:34:59.545Z,5.40
2023-04-18T22:40:23.329Z,6.10
2023-04-18T22:42:59.306Z,5.20
2023-04-18T22:45:28.399Z,5.63
2023-04-18T22:48:15.609Z,4.97
2023-04-18T22:50:56.861Z,4.80
2023-04-18T22:53:31.539Z,6.13
2023-04-18T22:56:00.747Z,5.20
2023-04-18T22:58:31.687Z,5.93
2023-04-18T23:01:01.715Z,6.53
2023-04-18T23:03:34.744Z,5.17
2023-04-18T23:06:13.270Z,5.57
2023-04-18T23:08:47.234Z,5.80
2023-04-18T23:11:17.117Z,5.77
2023-04-18T23:13:47.401Z,5.20
2023-04-18T23:16:16.748Z,4.00
2023-04-18T23:18:46.602Z,4.20
2023-04-18T23:23:54.174Z,5.50
2023-04-18T23:26:24.226Z,7.03
2023-04-18T23:28:53.546Z,5.73
2023-04-18T23:31:23.335Z,6.53
2023-04-18T23:33:52.512Z,6.93
2023-04-18T23:36:21.994Z,6.40
2023-04-18T23:38:52.788Z,6.00
2023-04-18T23:41:22.890Z,5.97
2023-04-18T23:43:52.266Z,5.87
2023-04-18T23:46:21.393Z,5.10
2023-04-18T23:48:50.609Z,5.47
2023-04-18T23:51:22.191Z,5.23
2023-04-18T23:53:55.785Z,5.60
2023-04-18T23:56:24.739Z,6.20
2023-04-18T23:58:54.395Z,6.67
